Time;durP1;ratioP1;P1;durP2;ratioP2;P2;SDS_P1;SDS_P2;PMS_P1;PMS_P2;Temp;Humidity;BMP_temperature;BMP_pressure;BME280_temperature;BME280_humidity;BME280_pressure;Samples;Min_cycle;Max_cycle;Signal;HPM_P1;HPM_P2
2022/05/16 00:00:46;;;;;;;4.30;4.00;;;;;;;;;;5050211;28;20492;-75
2022/05/16 00:03:14;;;;;;;4.83;3.93;;;;;;;;;;5049816;28;20450;-77
2022/05/16 00:05:41;;;;;;;4.53;4.10;;;;;;;;;;5049747;28;20519;-76
2022/05/16 00:08:09;;;;;;;6.03;3.60;;;;;;;;;;5064911;28;20456;-77
2022/05/16 00:10:36;;;;;;;4.33;3.80;;;;;;;;;;5069703;28;20951;-75
2022/05/16 00:13:03;;;;;;;4.20;3.80;;;;;;;;;;5069599;28;20433;-75
2022/05/16 00:15:31;;;;;;;4.20;3.90;;;;;;;;;;5069981;28;20548;-74
2022/05/16 00:17:59;;;;;;;4.00;3.70;;;;;;;;;;5069844;28;20522;-76
2022/05/16 00:20:27;;;;;;;4.00;3.60;;;;;;;;;;5069702;28;20444;-76
2022/05/16 00:22:54;;;;;;;4.90;4.10;;;;;;;;;;5069255;28;20506;-76
2022/05/16 00:25:21;;;;;;;3.70;3.40;;;;;;;;;;5069400;28;20479;-77
2022/05/16 00:27:48;;;;;;;4.20;3.87;;;;;;;;;;5069605;28;20549;-76
2022/05/16 00:30:17;;;;;;;5.00;3.63;;;;;;;;;;5069679;28;21009;-75
2022/05/16 00:32:44;;;;;;;5.67;3.90;;;;;;;;;;5069607;28;20453;-75
2022/05/16 00:35:12;;;;;;;6.30;4.23;;;;;;;;;;5069710;28;20436;-77
2022/05/16 00:37:41;;;;;;;4.57;4.20;;;;;;;;;;5069358;28;20843;-75
2022/05/16 00:40:09;;;;;;;4.20;3.80;;;;;;;;;;5070044;28;20444;-75
2022/05/16 00:42:37;;;;;;;4.73;3.70;;;;;;;;;;5069442;28;20444;-77
2022/05/16 00:45:04;;;;;;;4.73;4.20;;;;;;;;;;5069868;28;20437;-77
2022/05/16 00:47:31;;;;;;;4.03;3.73;;;;;;;;;;5069389;28;20866;-75
2022/05/16 00:49:59;;;;;;;4.47;4.07;;;;;;;;;;5069914;28;20799;-76
2022/05/16 00:52:27;;;;;;;6.10;3.93;;;;;;;;;;5069356;28;20441;-75
2022/05/16 00:54:57;;;;;;;4.40;4.00;;;;;;;;;;5069903;28;20441;-76
2022/05/16 00:57:25;;;;;;;3.97;3.67;;;;;;;;;;5069569;28;20469;-77
2022/05/16 01:00:03;;;;;;;6.33;4.47;;;;;;;;;;5069270;28;20436;-75
2022/05/16 01:05:16;;;;;;;4.83;4.50;;;;;;;;;;5069527;28;20500;-77
2022/05/16 01:07:45;;;;;;;4.33;4.00;;;;;;;;;;5060913;28;20481;-76
2022/05/16 01:10:14;;;;;;;4.30;3.90;;;;;;;;;;5053285;28;20472;-75
2022/05/16 01:12:43;;;;;;;5.40;4.90;;;;;;;;;;5052717;28;20507;-76
2022/05/16 01:15:11;;;;;;;4.50;4.10;;;;;;;;;;5053136;28;20452;-76
2022/05/16 01:17:38;;;;;;;4.90;4.50;;;;;;;;;;5053166;28;20461;-75
2022/05/16 01:20:05;;;;;;;5.30;4.83;;;;;;;;;;5053481;28;20465;-75
2022/05/16 01:22:35;;;;;;;4.70;4.40;;;;;;;;;;5052947;28;20503;-75
2022/05/16 01:25:05;;;;;;;4.43;4.13;;;;;;;;;;5053071;28;20503;-75
2022/05/16 01:27:42;;;;;;;4.20;4.00;;;;;;;;;;5052685;28;20515;-75
2022/05/16 01:30:10;;;;;;;6.00;4.17;;;;;;;;;;5053167;28;20441;-74
2022/05/16 01:32:37;;;;;;;4.93;4.53;;;;;;;;;;5052657;28;20723;-76
2022/05/16 01:35:04;;;;;;;4.50;4.00;;;;;;;;;;5053008;28;20904;-76
2022/05/16 01:40:14;;;;;;;4.87;4.47;;;;;;;;;;5052112;28;20736;-76
2022/05/16 01:42:41;;;;;;;4.87;4.30;;;;;;;;;;5052348;28;20465;-74
2022/05/16 01:45:09;;;;;;;6.30;4.90;;;;;;;;;;5052302;28;20452;-75
2022/05/16 01:47:36;;;;;;;6.97;3.97;;;;;;;;;;5052426;28;20492;-76
2022/05/16 01:50:03;;;;;;;6.87;4.13;;;;;;;;;;5052323;28;20483;-77
2022/05/16 01:52:30;;;;;;;4.50;4.13;;;;;;;;;;5051750;28;20449;-75
2022/05/16 01:54:57;;;;;;;5.10;4.43;;;;;;;;;;5052153;28;20999;-75
2022/05/16 01:57:26;;;;;;;4.10;3.80;;;;;;;;;;5052190;28;20465;-76
2022/05/16 01:59:53;;;;;;;4.73;3.17;;;;;;;;;;5052554;28;20504;-75
2022/05/16 02:02:20;;;;;;;3.60;3.30;;;;;;;;;;5052201;28;20567;-75
2022/05/16 02:04:47;;;;;;;4.33;3.90;;;;;;;;;;5051945;28;20461;-75
2022/05/16 02:07:14;;;;;;;3.13;2.93;;;;;;;;;;5059454;28;20484;-75
2022/05/16 02:09:41;;;;;;;6.07;4.27;;;;;;;;;;5071994;28;20940;-75
2022/05/16 02:12:08;;;;;;;4.70;3.57;;;;;;;;;;5071940;28;20464;-74
2022/05/16 02:14:37;;;;;;;3.63;3.30;;;;;;;;;;5071744;28;20463;-75
2022/05/16 02:17:04;;;;;;;4.30;3.90;;;;;;;;;;5071860;28;20536;-75
2022/05/16 02:19:31;;;;;;;4.23;3.73;;;;;;;;;;5071363;28;20514;-76
2022/05/16 02:24:43;;;;;;;4.37;3.97;;;;;;;;;;5071626;28;20494;-75
2022/05/16 02:27:12;;;;;;;4.37;4.07;;;;;;;;;;5071587;28;20580;-75
2022/05/16 02:29:41;;;;;;;3.60;3.30;;;;;;;;;;5071762;28;20498;-75
2022/05/16 02:32:08;;;;;;;4.33;4.03;;;;;;;;;;5071747;28;20571;-76
2022/05/16 02:34:35;;;;;;;4.10;3.40;;;;;;;;;;5071475;28;20456;-74
2022/05/16 02:37:03;;;;;;;4.87;3.80;;;;;;;;;;5071827;28;20441;-75
2022/05/16 02:39:30;;;;;;;3.67;3.37;;;;;;;;;;5071964;28;20449;-75
2022/05/16 02:41:57;;;;;;;4.57;3.57;;;;;;;;;;5071629;28;20998;-74
2022/05/16 02:44:24;;;;;;;3.70;3.50;;;;;;;;;;5071313;28;20486;-74
2022/05/16 02:46:52;;;;;;;3.70;3.30;;;;;;;;;;5071482;28;20848;-75
2022/05/16 02:49:21;;;;;;;3.97;3.77;;;;;;;;;;5071660;28;20448;-74
2022/05/16 02:51:48;;;;;;;3.53;3.27;;;;;;;;;;5071537;28;20437;-76
2022/05/16 02:54:15;;;;;;;3.40;3.10;;;;;;;;;;5071177;28;20443;-74
2022/05/16 02:56:42;;;;;;;3.87;3.43;;;;;;;;;;5071325;28;20449;-75
2022/05/16 02:59:09;;;;;;;4.53;3.73;;;;;;;;;;5070791;28;20972;-75
2022/05/16 03:01:36;;;;;;;6.00;3.70;;;;;;;;;;5070824;28;20441;-74
2022/05/16 03:04:05;;;;;;;3.93;3.53;;;;;;;;;;5071013;28;20445;-75
2022/05/16 03:06:32;;;;;;;4.30;3.50;;;;;;;;;;5069188;28;20448;-74
2022/05/16 03:08:59;;;;;;;5.40;4.27;;;;;;;;;;5051377;28;20457;-75
2022/05/16 03:11:26;;;;;;;4.20;3.70;;;;;;;;;;5051165;28;20461;-75
2022/05/16 03:13:53;;;;;;;7.63;4.77;;;;;;;;;;5050552;28;20532;-76
2022/05/16 03:16:20;;;;;;;4.40;3.67;;;;;;;;;;5051400;28;21099;-75
2022/05/16 03:18:47;;;;;;;4.90;3.70;;;;;;;;;;5050836;28;20470;-75
2022/05/16 03:21:16;;;;;;;4.10;3.63;;;;;;;;;;5051100;28;20472;-75
2022/05/16 03:23:43;;;;;;;5.47;4.50;;;;;;;;;;5050720;28;20852;-75
2022/05/16 03:26:10;;;;;;;3.73;3.53;;;;;;;;;;5050466;28;20453;-75
2022/05/16 03:28:37;;;;;;;4.20;3.80;;;;;;;;;;5050195;28;20906;-75
2022/05/16 03:31:04;;;;;;;5.83;3.53;;;;;;;;;;5049620;28;20445;-75
2022/05/16 03:33:32;;;;;;;7.40;3.57;;;;;;;;;;5050376;28;20449;-77
2022/05/16 03:35:59;;;;;;;4.30;3.53;;;;;;;;;;5050407;28;20445;-74
2022/05/16 03:41:13;;;;;;;4.27;3.90;;;;;;;;;;5050430;28;20428;-75
2022/05/16 03:43:41;;;;;;;5.00;3.60;;;;;;;;;;5050289;28;20491;-74
2022/05/16 03:46:08;;;;;;;4.37;4.07;;;;;;;;;;5050633;28;20806;-75
2022/05/16 03:48:35;;;;;;;4.70;3.83;;;;;;;;;;5050181;28;20481;-74
2022/05/16 03:51:04;;;;;;;5.70;3.83;;;;;;;;;;5050252;28;20445;-74
2022/05/16 03:53:34;;;;;;;4.47;3.83;;;;;;;;;;5049755;28;20454;-75
2022/05/16 03:56:01;;;;;;;3.63;3.30;;;;;;;;;;5050265;28;20481;-75
2022/05/16 03:58:28;;;;;;;5.77;3.83;;;;;;;;;;5050328;28;20818;-75
2022/05/16 04:00:56;;;;;;;4.40;3.90;;;;;;;;;;5050337;28;20453;-76
2022/05/16 04:03:23;;;;;;;4.90;4.27;;;;;;;;;;5050021;28;20544;-74
2022/05/16 04:05:50;;;;;;;7.50;4.40;;;;;;;;;;5053877;28;20475;-74
2022/05/16 04:08:17;;;;;;;4.57;4.10;;;;;;;;;;5071506;28;20511;-75
2022/05/16 04:10:46;;;;;;;7.47;3.97;;;;;;;;;;5073921;28;20853;-74
2022/05/16 04:13:13;;;;;;;4.47;4.10;;;;;;;;;;5070956;28;20448;-75
2022/05/16 04:15:40;;;;;;;4.40;4.03;;;;;;;;;;5070269;28;20448;-74
2022/05/16 04:18:08;;;;;;;3.97;3.67;;;;;;;;;;5070180;28;20460;-75
2022/05/16 04:20:35;;;;;;;3.77;3.57;;;;;;;;;;5070122;28;20468;-75
2022/05/16 04:23:02;;;;;;;5.97;4.90;;;;;;;;;;5070572;28;20443;-76
2022/05/16 04:25:29;;;;;;;5.13;4.70;;;;;;;;;;5070832;28;20579;-75
2022/05/16 04:27:57;;;;;;;5.03;4.43;;;;;;;;;;5070738;28;20488;-75
2022/05/16 04:30:24;;;;;;;5.20;4.70;;;;;;;;;;5071012;28;20802;-74
2022/05/16 04:32:51;;;;;;;5.47;4.90;;;;;;;;;;5071249;28;20448;-75
2022/05/16 04:35:18;;;;;;;5.90;5.20;;;;;;;;;;5070654;28;20448;-74
2022/05/16 04:37:45;;;;;;;8.10;4.47;;;;;;;;;;5070430;28;20821;-76
2022/05/16 04:40:14;;;;;;;5.60;4.73;;;;;;;;;;5070169;28;20456;-76
2022/05/16 04:42:40;;;;;;;6.50;4.53;;;;;;;;;;5073333;28;20447;-75
2022/05/16 04:45:09;;;;;;;7.40;5.90;;;;;;;;;;5073697;28;20740;-75
2022/05/16 04:47:36;;;;;;;8.53;5.00;;;;;;;;;;5073467;28;20476;-74
2022/05/16 04:50:03;;;;;;;5.63;5.10;;;;;;;;;;5073686;28;20532;-77
2022/05/16 04:52:32;;;;;;;5.93;4.77;;;;;;;;;;5073460;28;20449;-77
2022/05/16 04:54:59;;;;;;;7.07;5.70;;;;;;;;;;5073705;28;20474;-75
2022/05/16 04:57:26;;;;;;;7.40;5.03;;;;;;;;;;5073453;28;20506;-75
2022/05/16 04:59:53;;;;;;;8.77;6.30;;;;;;;;;;5073566;28;20521;-76
2022/05/16 05:02:22;;;;;;;10.13;5.83;;;;;;;;;;5073449;28;20448;-76
2022/05/16 05:04:49;;;;;;;7.20;5.90;;;;;;;;;;5073527;28;20880;-75
2022/05/16 05:07:17;;;;;;;6.70;5.67;;;;;;;;;;5065517;28;20860;-76
2022/05/16 05:15:14;;;;;;;7.17;5.83;;;;;;;;;;5053603;28;20453;-76
2022/05/16 05:17:43;;;;;;;6.57;5.97;;;;;;;;;;5053650;28;20468;-77
2022/05/16 05:20:13;;;;;;;8.60;6.07;;;;;;;;;;5053892;28;20532;-76
2022/05/16 05:22:40;;;;;;;10.33;5.63;;;;;;;;;;5053079;28;20449;-75
2022/05/16 05:25:07;;;;;;;13.63;9.07;;;;;;;;;;5053215;28;20933;-77
2022/05/16 05:27:34;;;;;;;10.40;6.13;;;;;;;;;;5053293;28;20485;-76
2022/05/16 05:30:01;;;;;;;15.47;6.90;;;;;;;;;;5053847;28;20456;-77
2022/05/16 05:32:28;;;;;;;8.90;6.60;;;;;;;;;;5053440;28;20445;-77
2022/05/16 05:34:56;;;;;;;7.33;5.17;;;;;;;;;;5054003;28;20532;-76
2022/05/16 05:37:23;;;;;;;9.40;5.80;;;;;;;;;;5053139;28;20482;-76
2022/05/16 05:39:52;;;;;;;7.53;5.23;;;;;;;;;;5052730;28;20787;-77
2022/05/16 05:42:19;;;;;;;8.33;5.60;;;;;;;;;;5053183;28;20468;-76
2022/05/16 05:44:46;;;;;;;11.03;6.23;;;;;;;;;;5052648;28;20523;-76
2022/05/16 05:47:13;;;;;;;7.07;5.70;;;;;;;;;;5052819;28;20514;-78
2022/05/16 05:49:41;;;;;;;9.57;5.37;;;;;;;;;;5052804;28;20445;-76
2022/05/16 05:52:09;;;;;;;7.23;5.97;;;;;;;;;;5051878;28;20515;-77
2022/05/16 05:54:36;;;;;;;7.73;6.57;;;;;;;;;;5051644;28;20976;-76
2022/05/16 05:57:06;;;;;;;11.93;6.57;;;;;;;;;;5052610;28;20441;-76
2022/05/16 05:59:33;;;;;;;8.97;5.73;;;;;;;;;;5052280;28;21041;-76
2022/05/16 06:02:00;;;;;;;9.47;6.50;;;;;;;;;;5052167;28;20441;-77
2022/05/16 06:04:27;;;;;;;6.13;5.53;;;;;;;;;;5052148;28;20442;-76
2022/05/16 06:06:54;;;;;;;5.97;5.43;;;;;;;;;;5056892;28;20445;-76
2022/05/16 06:09:22;;;;;;;7.70;5.60;;;;;;;;;;5072440;28;20795;-78
2022/05/16 06:11:49;;;;;;;7.03;5.40;;;;;;;;;;5072076;28;20461;-76
2022/05/16 06:14:17;;;;;;;7.77;6.00;;;;;;;;;;5071912;28;20486;-77
2022/05/16 06:16:44;;;;;;;6.77;5.40;;;;;;;;;;5071858;28;20474;-76
2022/05/16 06:19:11;;;;;;;6.77;5.90;;;;;;;;;;5071841;28;20456;-76
2022/05/16 06:21:38;;;;;;;7.97;5.30;;;;;;;;;;5071849;28;20502;-76
2022/05/16 06:25:31;;;;;;;10.67;6.30;;;;;;;;;;5071647;28;20602;-76
2022/05/16 06:26:55;;;;;;;11.87;6.23;;;;;;;;;;5071473;28;20459;-76
2022/05/16 06:29:22;;;;;;;9.40;5.80;;;;;;;;;;5071673;28;20485;-76
2022/05/16 06:31:49;;;;;;;13.43;5.80;;;;;;;;;;5071614;28;20494;-76
2022/05/16 06:34:16;;;;;;;14.67;4.67;;;;;;;;;;5071771;28;20447;-76
2022/05/16 06:36:43;;;;;;;8.87;6.20;;;;;;;;;;5071277;28;20449;-76
2022/05/16 06:39:10;;;;;;;8.87;5.20;;;;;;;;;;5071230;28;20464;-76
2022/05/16 06:41:37;;;;;;;7.23;5.70;;;;;;;;;;5071683;28;20528;-76
2022/05/16 06:44:06;;;;;;;7.20;5.10;;;;;;;;;;5071161;28;20437;-77
2022/05/16 06:46:33;;;;;;;9.73;6.00;;;;;;;;;;5071119;28;20839;-77
2022/05/16 06:49:00;;;;;;;7.57;5.33;;;;;;;;;;5071260;28;21331;-77
2022/05/16 06:51:27;;;;;;;12.50;5.77;;;;;;;;;;5071212;28;20441;-77
2022/05/16 06:53:55;;;;;;;6.00;5.20;;;;;;;;;;5070853;28;20500;-76
2022/05/16 06:56:22;;;;;;;5.13;4.63;;;;;;;;;;5071292;28;20936;-77
2022/05/16 06:58:49;;;;;;;5.77;4.63;;;;;;;;;;5071421;28;20460;-76
2022/05/16 07:01:17;;;;;;;8.10;5.07;;;;;;;;;;5071346;28;20448;-76
2022/05/16 07:03:44;;;;;;;7.50;5.10;;;;;;;;;;5070907;28;20436;-77
2022/05/16 07:06:14;;;;;;;4.67;4.27;;;;;;;;;;5071307;28;20449;-76
2022/05/16 07:08:42;;;;;;;5.50;4.57;;;;;;;;;;5051181;28;20477;-75
2022/05/16 07:11:09;;;;;;;6.73;5.07;;;;;;;;;;5051141;28;20479;-76
2022/05/16 07:13:37;;;;;;;6.17;4.83;;;;;;;;;;5050624;28;20498;-76
2022/05/16 07:16:04;;;;;;;5.33;4.10;;;;;;;;;;5050995;28;20445;-76
2022/05/16 07:18:33;;;;;;;5.10;4.40;;;;;;;;;;5050690;28;20985;-77
2022/05/16 07:21:00;;;;;;;5.67;4.53;;;;;;;;;;5050314;28;20453;-77
2022/05/16 07:23:28;;;;;;;10.13;4.40;;;;;;;;;;5050544;28;20441;-76
2022/05/16 07:28:40;;;;;;;4.57;4.00;;;;;;;;;;5050586;28;20472;-75
2022/05/16 07:31:09;;;;;;;5.30;4.30;;;;;;;;;;5050985;28;20457;-77
2022/05/16 07:33:37;;;;;;;5.67;4.33;;;;;;;;;;5050505;28;20449;-77
2022/05/16 07:36:05;;;;;;;5.30;4.83;;;;;;;;;;5050447;28;20449;-75
2022/05/16 07:38:33;;;;;;;6.73;4.70;;;;;;;;;;5050104;28;20458;-75
2022/05/16 07:41:00;;;;;;;4.80;4.30;;;;;;;;;;5051245;28;20449;-76
2022/05/16 07:43:27;;;;;;;5.63;5.03;;;;;;;;;;5050509;28;20450;-76
2022/05/16 07:45:54;;;;;;;6.80;5.07;;;;;;;;;;5050131;28;20967;-77
2022/05/16 07:48:22;;;;;;;4.57;4.27;;;;;;;;;;5050080;28;20479;-76
2022/05/16 07:50:50;;;;;;;4.50;4.10;;;;;;;;;;5050137;28;20872;-76
2022/05/16 07:53:18;;;;;;;8.33;4.50;;;;;;;;;;5049674;28;20450;-76
2022/05/16 07:55:46;;;;;;;4.70;4.40;;;;;;;;;;5050195;28;20529;-77
2022/05/16 07:58:13;;;;;;;5.87;5.10;;;;;;;;;;5049773;28;20842;-77
2022/05/16 08:00:40;;;;;;;6.07;5.33;;;;;;;;;;5050019;28;20810;-75
2022/05/16 08:03:10;;;;;;;8.37;7.67;;;;;;;;;;5050044;28;20861;-75
2022/05/16 08:05:37;;;;;;;7.50;5.70;;;;;;;;;;5049594;28;20446;-76
2022/05/16 08:10:50;;;;;;;5.90;5.20;;;;;;;;;;5069788;28;20513;-76
2022/05/16 08:13:17;;;;;;;6.33;5.77;;;;;;;;;;5069742;28;20440;-77
2022/05/16 08:15:44;;;;;;;7.70;5.30;;;;;;;;;;5069247;28;20498;-76
2022/05/16 08:18:12;;;;;;;6.43;5.57;;;;;;;;;;5069377;28;20460;-76
2022/05/16 08:20:42;;;;;;;12.73;6.00;;;;;;;;;;5069786;28;21089;-76
2022/05/16 08:23:11;;;;;;;10.20;5.20;;;;;;;;;;5069464;28;20455;-76
2022/05/16 08:25:38;;;;;;;6.77;5.87;;;;;;;;;;5069921;28;20473;-75
2022/05/16 08:28:05;;;;;;;6.40;5.00;;;;;;;;;;5070089;28;20979;-76
2022/05/16 08:30:32;;;;;;;6.03;5.43;;;;;;;;;;5070042;28;20490;-76
2022/05/16 08:33:01;;;;;;;5.53;5.07;;;;;;;;;;5069305;28;20456;-76
2022/05/16 08:35:28;;;;;;;10.00;5.50;;;;;;;;;;5069466;28;20444;-78
2022/05/16 08:40:46;;;;;;;6.77;5.27;;;;;;;;;;5069375;28;20547;-76
2022/05/16 08:43:16;;;;;;;5.73;5.30;;;;;;;;;;5069209;28;20441;-77
2022/05/16 08:45:45;;;;;;;6.10;5.60;;;;;;;;;;5069567;28;20440;-76
2022/05/16 08:48:15;;;;;;;5.77;5.27;;;;;;;;;;5069292;28;20468;-76
2022/05/16 08:50:44;;;;;;;7.37;4.97;;;;;;;;;;5069412;28;21009;-76
2022/05/16 08:53:15;;;;;;;6.70;5.43;;;;;;;;;;5069223;28;20452;-75
2022/05/16 08:55:45;;;;;;;7.60;5.57;;;;;;;;;;5069091;28;20498;-76
2022/05/16 08:58:15;;;;;;;7.90;5.70;;;;;;;;;;5069093;28;20477;-76
2022/05/16 09:00:47;;;;;;;7.33;5.57;;;;;;;;;;5069187;28;20491;-77
2022/05/16 09:03:16;;;;;;;8.70;5.60;;;;;;;;;;5069055;28;20963;-76
2022/05/16 09:05:47;;;;;;;6.97;5.57;;;;;;;;;;5069292;28;20448;-77
2022/05/16 09:08:18;;;;;;;9.40;5.97;;;;;;;;;;5053060;28;20763;-76
2022/05/16 09:10:58;;;;;;;6.30;5.70;;;;;;;;;;5049237;28;20500;-76
2022/05/16 09:13:31;;;;;;;6.10;5.50;;;;;;;;;;5048951;28;20438;-75
2022/05/16 09:16:04;;;;;;;10.63;6.30;;;;;;;;;;5049320;28;20524;-77
2022/05/16 09:18:33;;;;;;;8.77;5.37;;;;;;;;;;5048735;28;20487;-77
2022/05/16 09:21:06;;;;;;;6.43;5.83;;;;;;;;;;5048940;28;20445;-76
2022/05/16 09:23:37;;;;;;;6.30;5.70;;;;;;;;;;5048731;28;20445;-76
2022/05/16 09:26:10;;;;;;;10.83;5.20;;;;;;;;;;5048843;28;20953;-76
2022/05/16 09:28:41;;;;;;;6.20;5.00;;;;;;;;;;5052181;28;20465;-77
2022/05/16 09:31:11;;;;;;;6.57;5.00;;;;;;;;;;5052418;28;20433;-76
2022/05/16 09:33:42;;;;;;;8.27;5.37;;;;;;;;;;5052554;28;20495;-77
2022/05/16 09:36:11;;;;;;;5.73;5.13;;;;;;;;;;5052786;28;20530;-78
2022/05/16 09:38:43;;;;;;;5.50;5.10;;;;;;;;;;5052214;28;21024;-77
2022/05/16 09:41:17;;;;;;;6.37;5.27;;;;;;;;;;5052262;28;20910;-77
2022/05/16 09:43:45;;;;;;;13.20;5.30;;;;;;;;;;5052140;28;20507;-77
2022/05/16 09:46:21;;;;;;;7.33;5.30;;;;;;;;;;5053208;28;20449;-76
2022/05/16 09:48:48;;;;;;;6.70;5.57;;;;;;;;;;5055882;28;20495;-77
2022/05/16 09:51:22;;;;;;;7.50;5.17;;;;;;;;;;5071306;28;20468;-77
2022/05/16 09:53:49;;;;;;;5.23;4.83;;;;;;;;;;5064424;28;20543;-77
2022/05/16 09:56:20;;;;;;;5.67;5.17;;;;;;;;;;5063837;28;20441;-77
2022/05/16 09:58:50;;;;;;;5.37;4.87;;;;;;;;;;5057449;28;20469;-76
2022/05/16 10:01:32;;;;;;;6.47;4.90;;;;;;;;;;5064880;28;20445;-76
2022/05/16 10:04:09;;;;;;;5.80;5.30;;;;;;;;;;5071230;28;20481;-76
2022/05/16 10:06:41;;;;;;;5.70;5.20;;;;;;;;;;5069570;28;20964;-76
2022/05/16 10:09:09;;;;;;;5.50;5.10;;;;;;;;;;5068646;28;20974;-76
2022/05/16 10:11:39;;;;;;;7.23;5.63;;;;;;;;;;5071457;28;21097;-76
2022/05/16 10:14:06;;;;;;;7.13;5.03;;;;;;;;;;5067536;28;20437;-76
2022/05/16 10:16:36;;;;;;;5.83;5.40;;;;;;;;;;5054574;28;20444;-76
2022/05/16 10:19:05;;;;;;;7.90;5.27;;;;;;;;;;5054220;28;20465;-76
2022/05/16 10:21:34;;;;;;;5.90;5.30;;;;;;;;;;5065369;28;20475;-76
2022/05/16 10:24:02;;;;;;;7.20;5.60;;;;;;;;;;5062770;28;20438;-76
2022/05/16 10:26:32;;;;;;;7.63;5.10;;;;;;;;;;5061820;28;20490;-76
2022/05/16 10:29:02;;;;;;;6.40;5.60;;;;;;;;;;5068089;28;20483;-76
2022/05/16 10:34:20;;;;;;;7.23;6.53;;;;;;;;;;5062450;28;20466;-76
2022/05/16 10:36:49;;;;;;;5.57;5.07;;;;;;;;;;5056749;28;20521;-77
2022/05/16 10:39:18;;;;;;;8.30;5.80;;;;;;;;;;5050621;28;20868;-77
2022/05/16 10:41:50;;;;;;;5.90;5.40;;;;;;;;;;5051162;28;20457;-77
2022/05/16 10:44:24;;;;;;;5.67;5.27;;;;;;;;;;5051038;28;20528;-77
2022/05/16 10:47:00;;;;;;;6.70;5.70;;;;;;;;;;5059976;28;20880;-76
2022/05/16 10:49:30;;;;;;;6.13;5.40;;;;;;;;;;5069467;28;20506;-76
2022/05/16 10:51:59;;;;;;;7.00;4.90;;;;;;;;;;5071116;28;20445;-77
2022/05/16 10:54:27;;;;;;;5.23;4.80;;;;;;;;;;5070722;28;20838;-77
2022/05/16 10:57:00;;;;;;;6.53;4.77;;;;;;;;;;5071348;28;20449;-76
2022/05/16 10:59:37;;;;;;;6.00;3.77;;;;;;;;;;5068012;28;20796;-76
2022/05/16 11:02:07;;;;;;;5.27;3.63;;;;;;;;;;5064830;28;20456;-77
2022/05/16 11:04:58;;;;;;;15.33;4.10;;;;;;;;;;5072217;28;20502;-76
2022/05/16 11:07:30;;;;;;;6.67;3.70;;;;;;;;;;5050961;28;20465;-76
2022/05/16 11:10:03;;;;;;;5.70;3.70;;;;;;;;;;5061998;28;20473;-76
2022/05/16 11:12:33;;;;;;;6.07;4.03;;;;;;;;;;5074577;28;20453;-76
2022/05/16 11:15:08;;;;;;;5.33;3.90;;;;;;;;;;5072286;28;20487;-76
2022/05/16 11:17:41;;;;;;;4.47;3.80;;;;;;;;;;5066368;28;20491;-76
2022/05/16 11:20:10;;;;;;;6.37;3.30;;;;;;;;;;5069202;28;20836;-76
2022/05/16 11:22:40;;;;;;;8.23;3.90;;;;;;;;;;5074023;28;20948;-75
2022/05/16 11:25:09;;;;;;;5.83;3.93;;;;;;;;;;5065746;28;20489;-77
2022/05/16 11:27:39;;;;;;;11.00;3.40;;;;;;;;;;5050549;28;20489;-77
2022/05/16 11:30:13;;;;;;;6.57;3.67;;;;;;;;;;5050951;28;21000;-76
2022/05/16 11:32:47;;;;;;;5.70;2.90;;;;;;;;;;5050645;28;20929;-77
2022/05/16 11:35:18;;;;;;;6.40;3.07;;;;;;;;;;5050789;28;20468;-76
2022/05/16 11:37:54;;;;;;;4.50;2.67;;;;;;;;;;5050603;28;20466;-76
2022/05/16 11:40:24;;;;;;;5.53;3.27;;;;;;;;;;5053276;28;20436;-75
2022/05/16 11:42:55;;;;;;;3.63;2.63;;;;;;;;;;5053031;28;20446;-76
2022/05/16 11:45:31;;;;;;;3.17;2.50;;;;;;;;;;5050665;28;20434;-77
2022/05/16 11:48:03;;;;;;;2.57;2.37;;;;;;;;;;5050302;28;20469;-77
2022/05/16 11:50:35;;;;;;;5.53;2.40;;;;;;;;;;5055702;28;20526;-77
2022/05/16 11:53:06;;;;;;;5.47;2.50;;;;;;;;;;5069693;28;20445;-77
2022/05/16 12:01:07;;;;;;;2.20;1.70;;;;;;;;;;5049899;28;20424;-77
2022/05/16 12:03:36;;;;;;;3.23;1.90;;;;;;;;;;5049625;28;20481;-77
2022/05/16 12:06:23;;;;;;;2.80;1.73;;;;;;;;;;5050142;28;20449;-76
2022/05/16 12:08:50;;;;;;;1.90;1.60;;;;;;;;;;5049574;28;20462;-77
2022/05/16 12:11:21;;;;;;;6.63;2.20;;;;;;;;;;5049498;28;20535;-77
2022/05/16 12:14:00;;;;;;;3.13;1.90;;;;;;;;;;5049404;28;20853;-77
2022/05/16 12:16:32;;;;;;;2.60;1.90;;;;;;;;;;5049847;28;20457;-77
2022/05/16 12:19:14;;;;;;;4.70;2.00;;;;;;;;;;5049617;28;21003;-77
2022/05/16 12:21:41;;;;;;;3.40;2.13;;;;;;;;;;5050220;28;20467;-77
2022/05/16 12:24:27;;;;;;;3.03;2.30;;;;;;;;;;5049470;28;20438;-77
2022/05/16 12:27:05;;;;;;;7.80;2.10;;;;;;;;;;5049897;28;20441;-78
2022/05/16 12:29:39;;;;;;;2.50;2.30;;;;;;;;;;5049958;28;20453;-77
2022/05/16 12:32:08;;;;;;;4.03;2.17;;;;;;;;;;5066320;28;20455;-76
2022/05/16 12:40:30;;;;;;;3.33;1.90;;;;;;;;;;4606655;26;20488;-75
2022/05/16 12:43:22;;;;;;;3.43;2.27;;;;;;;;;;5007416;28;20534;-79
2022/05/16 12:46:03;;;;;;;2.93;1.73;;;;;;;;;;5010358;28;20440;-76
2022/05/16 12:48:49;;;;;;;3.70;2.00;;;;;;;;;;5010159;28;20467;-75
2022/05/16 12:51:28;;;;;;;8.40;2.70;;;;;;;;;;5009954;28;21002;-74
2022/05/16 12:57:21;;;;;;;3.10;2.57;;;;;;;;;;5009940;28;20812;-74
2022/05/16 13:12:37;;;;;;;6.53;3.00;;;;;;;;;;4913731;29;20922;-75
2022/05/16 13:18:17;;;;;;;2.90;2.70;;;;;;;;;;4894817;29;20921;-75
2022/05/16 13:21:46;;;;;;;;;;;;;;;;;;;;;
2022/05/16 13:24:15;;;;;;;3.97;2.50;;;;;;;;;;4969004;28;20808;-76
2022/05/16 14:01:27;;;;;;;6.53;3.13;;;;;;;;;;4948792;28;20465;-74
2022/05/16 14:04:22;;;;;;;3.83;2.73;;;;;;;;;;4971391;28;20829;-74
2022/05/16 14:10:15;;;;;;;4.00;3.10;;;;;;;;;;4988800;28;20456;-75
2022/05/16 14:16:09;;;;;;;5.90;3.13;;;;;;;;;;4988812;28;20435;-75
2022/05/16 14:19:03;;;;;;;3.60;3.20;;;;;;;;;;5005990;28;20465;-74
2022/05/16 14:22:17;;;;;;;4.57;3.17;;;;;;;;;;5011932;28;20487;-75
2022/05/16 14:31:24;;;;;;;6.10;3.27;;;;;;;;;;4831175;29;20488;-75
2022/05/16 15:04:54;;;;;;;4.90;4.37;;;;;;;;;;5036593;23;20491;-76
2022/05/16 15:07:21;;;;;;;6.93;4.00;;;;;;;;;;5012554;28;20456;-76
2022/05/16 15:09:49;;;;;;;6.00;3.30;;;;;;;;;;5004480;28;20448;-75
2022/05/16 15:12:16;;;;;;;3.57;3.27;;;;;;;;;;5012216;28;20895;-77
2022/05/16 15:14:43;;;;;;;4.77;3.00;;;;;;;;;;5012063;28;20795;-77
2022/05/16 15:17:13;;;;;;;4.93;3.87;;;;;;;;;;5012627;28;20503;-77
2022/05/16 15:19:40;;;;;;;3.70;3.40;;;;;;;;;;5012354;28;20753;-77
2022/05/16 15:22:10;;;;;;;5.97;3.43;;;;;;;;;;5012383;28;20442;-77
2022/05/16 15:24:38;;;;;;;3.23;3.03;;;;;;;;;;5012129;28;20459;-75
2022/05/16 15:27:06;;;;;;;5.53;3.73;;;;;;;;;;5012317;28;20454;-78
2022/05/16 15:29:36;;;;;;;5.00;3.67;;;;;;;;;;5011322;28;20525;-77
2022/05/16 15:32:03;;;;;;;4.30;3.50;;;;;;;;;;5011554;28;20565;-77
2022/05/16 15:34:31;;;;;;;4.20;3.47;;;;;;;;;;5011894;28;20815;-76
2022/05/16 15:39:41;;;;;;;3.90;3.50;;;;;;;;;;4110853;26;20839;-77
2022/05/16 15:42:08;;;;;;;3.83;2.50;;;;;;;;;;5012146;28;20487;-77
2022/05/16 15:44:35;;;;;;;5.47;3.60;;;;;;;;;;5008487;28;20509;-77
2022/05/16 15:47:04;;;;;;;5.13;2.93;;;;;;;;;;5005223;28;20474;-77
2022/05/16 15:49:31;;;;;;;4.80;2.90;;;;;;;;;;5012206;28;20531;-76
2022/05/16 15:51:58;;;;;;;3.93;2.70;;;;;;;;;;5012552;28;20483;-77
2022/05/16 15:54:25;;;;;;;3.00;2.47;;;;;;;;;;5011804;28;20517;-76
2022/05/16 15:56:53;;;;;;;4.73;2.90;;;;;;;;;;5011536;28;20460;-77
2022/05/16 15:59:20;;;;;;;3.57;2.93;;;;;;;;;;5011705;28;20451;-76
2022/05/16 16:01:48;;;;;;;4.20;2.40;;;;;;;;;;5011815;28;20439;-76
2022/05/16 16:09:44;;;;;;;5.20;2.80;;;;;;;;;;5011742;28;20479;-77
2022/05/16 16:12:15;;;;;;;3.47;2.53;;;;;;;;;;5011534;28;20655;-77
2022/05/16 16:14:42;;;;;;;4.80;3.00;;;;;;;;;;5011412;28;20530;-77
2022/05/16 16:17:09;;;;;;;2.83;2.50;;;;;;;;;;5011495;28;20533;-77
2022/05/16 16:19:39;;;;;;;5.40;2.53;;;;;;;;;;5011073;28;20447;-77
2022/05/16 16:22:06;;;;;;;3.07;2.40;;;;;;;;;;5011406;28;20451;-76
2022/05/16 16:24:33;;;;;;;4.40;2.57;;;;;;;;;;5010263;28;20447;-77
2022/05/16 16:27:00;;;;;;;3.03;2.20;;;;;;;;;;5011431;28;20547;-77
2022/05/16 16:29:29;;;;;;;2.17;1.90;;;;;;;;;;5011449;28;20836;-77
2022/05/16 16:31:56;;;;;;;3.73;1.93;;;;;;;;;;5010709;28;20479;-77
2022/05/16 16:37:25;;;;;;;3.70;1.60;;;;;;;;;;4996994;28;20463;-76
2022/05/16 16:39:52;;;;;;;3.20;2.27;;;;;;;;;;5011237;28;20837;-77
2022/05/16 16:42:19;;;;;;;2.30;2.10;;;;;;;;;;5010911;28;21033;-77
2022/05/16 16:44:48;;;;;;;2.97;2.27;;;;;;;;;;5010920;28;20451;-76
2022/05/16 16:47:15;;;;;;;2.30;2.10;;;;;;;;;;5010963;28;20521;-76
2022/05/16 16:49:42;;;;;;;2.40;1.90;;;;;;;;;;5010851;28;20947;-76
2022/05/16 16:57:43;;;;;;;2.60;2.40;;;;;;;;;;5010942;28;20953;-77
2022/05/16 17:00:14;;;;;;;4.33;3.20;;;;;;;;;;5011370;28;20970;-78
2022/05/16 17:02:46;;;;;;;2.70;2.10;;;;;;;;;;5012264;28;20549;-78
2022/05/16 17:05:15;;;;;;;3.93;2.53;;;;;;;;;;5011633;28;20439;-78
2022/05/16 17:07:43;;;;;;;1.83;1.60;;;;;;;;;;5013309;28;20547;-77
2022/05/16 17:10:14;;;;;;;3.10;2.50;;;;;;;;;;5025369;28;20750;-77
2022/05/16 17:12:42;;;;;;;2.00;1.80;;;;;;;;;;5021421;28;20486;-77
2022/05/16 17:15:09;;;;;;;3.57;2.40;;;;;;;;;;5011659;28;20443;-77
2022/05/16 17:17:38;;;;;;;2.10;1.90;;;;;;;;;;5011035;28;20463;-76
2022/05/16 17:20:06;;;;;;;2.17;2.07;;;;;;;;;;5011675;28;20451;-78
2022/05/16 17:22:33;;;;;;;5.60;2.67;;;;;;;;;;5013655;28;20446;-77
2022/05/16 17:25:01;;;;;;;2.30;2.10;;;;;;;;;;5019682;28;20439;-76
2022/05/16 17:27:28;;;;;;;3.83;1.90;;;;;;;;;;5026971;28;20586;-75
2022/05/16 17:29:55;;;;;;;2.10;2.00;;;;;;;;;;5014733;28;20446;-77